Time;durP1;ratioP1;P1;durP2;ratioP2;P2;SDS_P1;SDS_P2;PMS_P1;PMS_P2;Temp;Humidity;BMP_temperature;BMP_pressure;BME280_temperature;BME280_humidity;BME280_pressure;Samples;Min_cycle;Max_cycle;Signal;HPM_P1;HPM_P2
2022/07/03 00:02:20;;;;;;;1.95;1.42;;;;;;;;;;5013572;28;20042;-81
2022/07/03 00:04:46;;;;;;;1.55;1.40;;;;;;;;;;5007471;28;20054;-81
2022/07/03 00:07:12;;;;;;;1.75;1.55;;;;;;;;;;5000218;28;20065;-81
2022/07/03 00:09:38;;;;;;;2.85;1.65;;;;;;;;;;5012378;28;20501;-81
2022/07/03 00:12:05;;;;;;;2.08;1.60;;;;;;;;;;5011237;28;20049;-81
2022/07/03 00:14:32;;;;;;;1.58;1.40;;;;;;;;;;5012597;28;20092;-81
2022/07/03 00:16:58;;;;;;;2.03;1.50;;;;;;;;;;5011623;28;20057;-81
2022/07/03 00:19:24;;;;;;;1.55;1.45;;;;;;;;;;5009185;28;20049;-81
2022/07/03 00:21:58;;;;;;;2.00;1.42;;;;;;;;;;4993374;28;20099;-81
2022/07/03 00:24:25;;;;;;;1.55;1.45;;;;;;;;;;5005870;28;20049;-82
2022/07/03 00:26:52;;;;;;;3.88;1.98;;;;;;;;;;5011496;28;20050;-81
2022/07/03 00:29:22;;;;;;;1.52;1.42;;;;;;;;;;5009631;28;20136;-81
2022/07/03 00:31:48;;;;;;;1.55;1.40;;;;;;;;;;5012744;28;20051;-81
2022/07/03 00:34:15;;;;;;;2.47;1.50;;;;;;;;;;5012834;28;20049;-81
2022/07/03 00:36:41;;;;;;;2.13;1.45;;;;;;;;;;5012193;28;20092;-80
2022/07/03 00:39:07;;;;;;;2.20;1.50;;;;;;;;;;5011070;28;20058;-80
2022/07/03 00:41:35;;;;;;;1.40;1.30;;;;;;;;;;5011791;28;20050;-80
2022/07/03 00:44:01;;;;;;;3.08;1.60;;;;;;;;;;5011978;28;20077;-81
2022/07/03 00:46:28;;;;;;;3.08;1.80;;;;;;;;;;5010828;28;20046;-81
2022/07/03 00:48:54;;;;;;;2.25;1.60;;;;;;;;;;5012041;28;20081;-81
2022/07/03 00:51:24;;;;;;;2.30;1.77;;;;;;;;;;5012217;28;20042;-81
2022/07/03 00:53:52;;;;;;;2.15;1.70;;;;;;;;;;5010139;28;20124;-80
2022/07/03 00:56:20;;;;;;;2.10;1.80;;;;;;;;;;5009804;28;20061;-81
2022/07/03 00:58:46;;;;;;;2.35;1.70;;;;;;;;;;5006761;28;20512;-80
2022/07/03 01:01:16;;;;;;;1.80;1.70;;;;;;;;;;5005916;28;20065;-80
2022/07/03 01:03:43;;;;;;;1.88;1.77;;;;;;;;;;5010991;28;20038;-80
2022/07/03 01:06:11;;;;;;;2.42;1.70;;;;;;;;;;5010933;28;20050;-79
2022/07/03 01:08:49;;;;;;;2.53;1.88;;;;;;;;;;5010604;28;20499;-80
2022/07/03 01:11:30;;;;;;;3.08;2.00;;;;;;;;;;5010017;28;20041;-81
2022/07/03 01:14:01;;;;;;;3.17;1.90;;;;;;;;;;5011356;28;20073;-80
2022/07/03 01:16:31;;;;;;;1.98;1.70;;;;;;;;;;5012506;28;20050;-78
2022/07/03 01:19:06;;;;;;;3.33;1.88;;;;;;;;;;5008905;28;20045;-80
2022/07/03 01:21:42;;;;;;;2.80;1.92;;;;;;;;;;5010325;28;20166;-79
2022/07/03 01:24:29;;;;;;;2.97;1.70;;;;;;;;;;5010740;28;20401;-80
2022/07/03 01:27:02;;;;;;;1.70;1.60;;;;;;;;;;5010495;28;20136;-80
2022/07/03 01:29:42;;;;;;;2.70;1.73;;;;;;;;;;5010985;28;20064;-80
2022/07/03 01:32:08;;;;;;;3.25;1.67;;;;;;;;;;5009511;28;20489;-80
2022/07/03 01:34:35;;;;;;;1.83;1.40;;;;;;;;;;5009292;28;20061;-79
2022/07/03 01:37:01;;;;;;;1.95;1.67;;;;;;;;;;5011721;28;20108;-80
2022/07/03 01:39:27;;;;;;;1.83;1.73;;;;;;;;;;5010999;28;20049;-81
2022/07/03 01:41:56;;;;;;;1.58;1.48;;;;;;;;;;5008406;28;20049;-80
2022/07/03 01:44:23;;;;;;;2.00;1.90;;;;;;;;;;5011330;28;20401;-81
2022/07/03 01:46:50;;;;;;;2.03;1.80;;;;;;;;;;5009841;28;20556;-80
2022/07/03 01:49:16;;;;;;;2.80;1.95;;;;;;;;;;5011174;28;20045;-80
2022/07/03 01:51:42;;;;;;;2.28;2.08;;;;;;;;;;5009646;28;20038;-80
2022/07/03 01:54:10;;;;;;;3.45;2.40;;;;;;;;;;5009063;28;20116;-80
2022/07/03 01:56:36;;;;;;;2.92;2.20;;;;;;;;;;5009640;28;20058;-80
2022/07/03 01:59:03;;;;;;;2.35;2.15;;;;;;;;;;5006191;28;20050;-80
2022/07/03 02:01:38;;;;;;;2.97;2.42;;;;;;;;;;5005584;28;20107;-79
2022/07/03 02:04:11;;;;;;;3.35;2.53;;;;;;;;;;5009738;28;20100;-80
2022/07/03 02:06:37;;;;;;;;;;;;;;;;;;5009241;28;20072;-80
2022/07/03 02:09:05;;;;;;;4.28;2.70;;;;;;;;;;5010635;28;20321;-80
2022/07/03 02:11:36;;;;;;;1.38;1.25;;;;;;;;;;5008402;28;20557;-80
2022/07/03 02:14:08;;;;;;;2.13;1.30;;;;;;;;;;5000300;28;20056;-80
2022/07/03 02:16:42;;;;;;;1.90;1.20;;;;;;;;;;5006726;28;20093;-80
2022/07/03 02:19:11;;;;;;;1.20;1.17;;;;;;;;;;5014826;28;20481;-80
2022/07/03 02:21:40;;;;;;;4.47;1.30;;;;;;;;;;5007658;28;20116;-80
2022/07/03 02:24:20;;;;;;;3.17;1.20;;;;;;;;;;5014563;28;20046;-80
2022/07/03 02:27:05;;;;;;;2.17;1.45;;;;;;;;;;4997327;28;20477;-80
2022/07/03 02:29:36;;;;;;;1.10;1.10;;;;;;;;;;5005471;28;20050;-80
2022/07/03 02:32:04;;;;;;;1.48;1.35;;;;;;;;;;5011981;28;20547;-80
2022/07/03 02:34:34;;;;;;;1.85;1.27;;;;;;;;;;5012586;28;20165;-79
2022/07/03 02:37:06;;;;;;;2.42;1.42;;;;;;;;;;5014482;28;20046;-80
2022/07/03 02:39:50;;;;;;;2.42;1.30;;;;;;;;;;5013602;28;20129;-80
2022/07/03 02:42:31;;;;;;;2.20;1.40;;;;;;;;;;5011597;28;20056;-80
2022/07/03 02:44:58;;;;;;;3.72;1.40;;;;;;;;;;5012601;28;20181;-80
2022/07/03 02:47:24;;;;;;;1.98;1.40;;;;;;;;;;5015161;28;20050;-80
2022/07/03 02:49:50;;;;;;;1.58;1.25;;;;;;;;;;5006351;28;20038;-80
2022/07/03 02:52:27;;;;;;;2.15;1.40;;;;;;;;;;5010485;28;20056;-80
2022/07/03 02:54:55;;;;;;;2.15;1.20;;;;;;;;;;5014111;28;20095;-80
2022/07/03 02:57:24;;;;;;;3.15;1.58;;;;;;;;;;5012568;28;20046;-81
2022/07/03 02:59:50;;;;;;;1.80;1.27;;;;;;;;;;5013719;28;20053;-80
2022/07/03 03:02:22;;;;;;;2.05;1.35;;;;;;;;;;5012470;28;20394;-80
2022/07/03 03:05:03;;;;;;;2.30;1.30;;;;;;;;;;5011147;28;20049;-79
2022/07/03 03:07:34;;;;;;;1.30;1.20;;;;;;;;;;5008891;28;20069;-80
2022/07/03 03:10:00;;;;;;;2.20;1.35;;;;;;;;;;5011159;28;20054;-80
2022/07/03 03:12:31;;;;;;;2.33;1.20;;;;;;;;;;5011913;28;20112;-80
2022/07/03 03:15:01;;;;;;;2.35;1.30;;;;;;;;;;5003955;28;20045;-80
2022/07/03 03:17:29;;;;;;;1.42;1.30;;;;;;;;;;5012590;28;20134;-80
2022/07/03 03:19:59;;;;;;;2.05;1.33;;;;;;;;;;5011949;28;20050;-80
2022/07/03 03:22:43;;;;;;;2.03;1.52;;;;;;;;;;5013003;28;20057;-80
2022/07/03 03:25:09;;;;;;;1.90;1.40;;;;;;;;;;5011574;28;20049;-81
2022/07/03 03:27:35;;;;;;;2.42;1.30;;;;;;;;;;5012092;28;20050;-80
2022/07/03 03:30:01;;;;;;;1.17;1.17;;;;;;;;;;5013553;28;20409;-79
2022/07/03 03:32:28;;;;;;;1.90;1.30;;;;;;;;;;5010573;28;20185;-80
2022/07/03 03:34:54;;;;;;;1.45;1.30;;;;;;;;;;5012227;28;20140;-80
2022/07/03 03:37:20;;;;;;;1.30;1.20;;;;;;;;;;5011764;28;20390;-80
2022/07/03 03:39:47;;;;;;;1.85;1.38;;;;;;;;;;5012088;28;20057;-80
2022/07/03 03:42:13;;;;;;;1.50;1.40;;;;;;;;;;5012658;28;20042;-80
2022/07/03 03:44:39;;;;;;;3.13;1.33;;;;;;;;;;5006011;28;20380;-80
2022/07/03 03:47:05;;;;;;;1.73;1.20;;;;;;;;;;5014045;28;20501;-80
2022/07/03 03:49:31;;;;;;;1.67;1.33;;;;;;;;;;5011628;28;20364;-79
2022/07/03 03:51:57;;;;;;;1.67;1.23;;;;;;;;;;5010297;28;20046;-80
2022/07/03 03:54:23;;;;;;;1.83;1.30;;;;;;;;;;5011186;28;20050;-80
2022/07/03 03:56:49;;;;;;;1.63;1.40;;;;;;;;;;5010173;28;20405;-80
2022/07/03 03:59:16;;;;;;;2.08;1.23;;;;;;;;;;5010648;28;20049;-80
2022/07/03 04:01:42;;;;;;;1.27;1.17;;;;;;;;;;5012023;28;20549;-80
2022/07/03 04:04:08;;;;;;;1.95;1.30;;;;;;;;;;5010690;28;20092;-80
2022/07/03 04:06:34;;;;;;;2.08;1.30;;;;;;;;;;5010082;28;20045;-79
2022/07/03 04:09:00;;;;;;;3.00;1.40;;;;;;;;;;5011651;28;20039;-79
2022/07/03 04:11:26;;;;;;;3.30;1.40;;;;;;;;;;5010587;28;20050;-80
2022/07/03 04:13:52;;;;;;;1.40;1.30;;;;;;;;;;5008821;28;20045;-80
2022/07/03 04:16:18;;;;;;;1.58;1.30;;;;;;;;;;5009496;28;20101;-80
2022/07/03 04:18:44;;;;;;;1.50;1.38;;;;;;;;;;5009861;28;20056;-80
2022/07/03 04:21:10;;;;;;;3.10;1.52;;;;;;;;;;4993675;28;20522;-80
2022/07/03 04:23:36;;;;;;;3.53;1.45;;;;;;;;;;5009946;28;20062;-80
2022/07/03 04:26:05;;;;;;;4.25;1.60;;;;;;;;;;5012333;28;20141;-80
2022/07/03 04:28:32;;;;;;;1.88;1.30;;;;;;;;;;5012931;28;20596;-80
2022/07/03 04:30:58;;;;;;;1.88;1.48;;;;;;;;;;5013329;28;20042;-80
2022/07/03 04:33:24;;;;;;;1.83;1.38;;;;;;;;;;5011994;28;20046;-81
2022/07/03 04:35:50;;;;;;;3.15;1.50;;;;;;;;;;5003052;28;20046;-80
2022/07/03 04:38:16;;;;;;;2.60;1.48;;;;;;;;;;4994523;28;20512;-80
2022/07/03 04:40:42;;;;;;;2.03;1.42;;;;;;;;;;4991712;28;20065;-80
2022/07/03 04:43:08;;;;;;;3.90;1.50;;;;;;;;;;5001712;28;20073;-80
2022/07/03 04:45:34;;;;;;;2.92;1.42;;;;;;;;;;5006993;28;20046;-80
2022/07/03 04:48:00;;;;;;;2.88;1.50;;;;;;;;;;5005247;28;20148;-80
2022/07/03 04:50:26;;;;;;;5.28;1.60;;;;;;;;;;5012317;28;20492;-80
2022/07/03 04:52:52;;;;;;;2.13;1.52;;;;;;;;;;5009900;28;20600;-79
2022/07/03 04:55:18;;;;;;;5.13;1.75;;;;;;;;;;5010097;28;20057;-79
2022/07/03 04:57:44;;;;;;;2.67;1.60;;;;;;;;;;5012919;28;20138;-80
2022/07/03 05:00:10;;;;;;;2.10;1.42;;;;;;;;;;5007263;28;20129;-79
2022/07/03 05:02:36;;;;;;;1.55;1.42;;;;;;;;;;4990837;28;20100;-80
2022/07/03 05:05:03;;;;;;;4.47;1.50;;;;;;;;;;4995219;28;20445;-79
2022/07/03 05:07:29;;;;;;;2.78;1.42;;;;;;;;;;5011790;28;20097;-79
2022/07/03 05:09:55;;;;;;;1.48;1.38;;;;;;;;;;5010401;28;20056;-79
2022/07/03 05:12:21;;;;;;;3.38;1.50;;;;;;;;;;5009093;28;20119;-80
2022/07/03 05:14:47;;;;;;;3.17;1.45;;;;;;;;;;5004051;28;20062;-79
2022/07/03 05:17:13;;;;;;;2.13;1.50;;;;;;;;;;5003409;28;20107;-80
2022/07/03 05:19:39;;;;;;;3.90;1.60;;;;;;;;;;5011026;28;20061;-79
2022/07/03 05:22:05;;;;;;;3.03;1.60;;;;;;;;;;5012115;28;20049;-79
2022/07/03 05:24:31;;;;;;;1.92;1.60;;;;;;;;;;5010697;28;20045;-79
2022/07/03 05:26:57;;;;;;;3.00;1.50;;;;;;;;;;5012133;28;20489;-80
2022/07/03 05:29:23;;;;;;;2.10;1.50;;;;;;;;;;5013095;28;20095;-80
2022/07/03 05:31:49;;;;;;;3.28;1.88;;;;;;;;;;5010857;28;20111;-80
2022/07/03 05:34:15;;;;;;;1.75;1.50;;;;;;;;;;5011577;28;20481;-80
2022/07/03 05:36:41;;;;;;;3.03;1.60;;;;;;;;;;4991465;28;20061;-79
2022/07/03 05:41:52;;;;;;;2.58;1.45;;;;;;;;;;5004725;28;20053;-79
2022/07/03 05:44:18;;;;;;;2.47;1.40;;;;;;;;;;5002491;28;20450;-80
2022/07/03 05:46:44;;;;;;;2.50;1.65;;;;;;;;;;5010175;28;20141;-79
2022/07/03 05:49:10;;;;;;;5.13;1.92;;;;;;;;;;5011388;28;20137;-79
2022/07/03 05:51:36;;;;;;;3.65;2.05;;;;;;;;;;5011169;28;20044;-79
2022/07/03 05:54:02;;;;;;;4.88;1.95;;;;;;;;;;5012083;28;20084;-80
2022/07/03 05:56:28;;;;;;;5.05;1.77;;;;;;;;;;5010096;28;20046;-80
2022/07/03 05:58:54;;;;;;;3.72;2.20;;;;;;;;;;5011155;28;20512;-80
2022/07/03 06:01:20;;;;;;;4.80;1.90;;;;;;;;;;5006726;28;20479;-80
2022/07/03 06:03:46;;;;;;;4.13;1.80;;;;;;;;;;4991941;28;20042;-80
2022/07/03 06:06:12;;;;;;;5.47;1.90;;;;;;;;;;4990532;28;20085;-79
2022/07/03 06:08:38;;;;;;;6.18;2.08;;;;;;;;;;5011520;28;20083;-79
2022/07/03 06:11:04;;;;;;;6.97;2.22;;;;;;;;;;5012059;28;20057;-80
2022/07/03 06:13:30;;;;;;;2.80;1.75;;;;;;;;;;5011194;28;20038;-80
2022/07/03 06:15:56;;;;;;;3.03;1.70;;;;;;;;;;5011725;28;20046;-80
2022/07/03 06:18:22;;;;;;;3.10;1.70;;;;;;;;;;5010281;28;20038;-79
2022/07/03 06:20:48;;;;;;;4.60;1.92;;;;;;;;;;4999438;28;20515;-80
2022/07/03 06:23:14;;;;;;;4.03;1.70;;;;;;;;;;5003181;28;20413;-80
2022/07/03 06:25:40;;;;;;;2.78;1.70;;;;;;;;;;4992450;28;20053;-80
2022/07/03 06:28:06;;;;;;;8.60;1.88;;;;;;;;;;4991846;28;20070;-80
2022/07/03 06:30:32;;;;;;;3.90;1.85;;;;;;;;;;4998146;28;20056;-80
2022/07/03 06:32:58;;;;;;;4.90;1.88;;;;;;;;;;4996972;28;20061;-80
2022/07/03 06:35:24;;;;;;;5.05;2.00;;;;;;;;;;5008922;28;20472;-80
2022/07/03 06:37:50;;;;;;;4.25;2.08;;;;;;;;;;5010465;28;20490;-80
2022/07/03 06:40:16;;;;;;;3.85;1.90;;;;;;;;;;5008602;28;20107;-81
2022/07/03 06:42:42;;;;;;;4.72;1.88;;;;;;;;;;5010579;28;20046;-80
2022/07/03 06:45:09;;;;;;;4.07;2.10;;;;;;;;;;5011608;28;20405;-80
2022/07/03 06:47:41;;;;;;;5.70;2.00;;;;;;;;;;5008973;28;20042;-81
2022/07/03 06:50:07;;;;;;;3.55;1.92;;;;;;;;;;4990712;28;20570;-80
2022/07/03 06:52:33;;;;;;;4.15;2.10;;;;;;;;;;4990394;28;20046;-79
2022/07/03 06:54:59;;;;;;;5.35;2.17;;;;;;;;;;4990879;28;20471;-80
2022/07/03 06:57:25;;;;;;;4.53;2.08;;;;;;;;;;4996055;28;20064;-80
2022/07/03 06:59:51;;;;;;;4.50;1.95;;;;;;;;;;5008765;28;20902;-80
2022/07/03 07:02:17;;;;;;;4.93;2.17;;;;;;;;;;5001760;28;20047;-80
2022/07/03 07:04:43;;;;;;;6.75;3.00;;;;;;;;;;5014349;28;20502;-80
2022/07/03 07:07:10;;;;;;;8.23;2.10;;;;;;;;;;4995470;28;20057;-79
2022/07/03 07:09:36;;;;;;;5.40;2.15;;;;;;;;;;4993394;28;20057;-80
2022/07/03 07:12:02;;;;;;;7.57;2.33;;;;;;;;;;5007196;28;20045;-80
2022/07/03 07:14:28;;;;;;;5.93;2.20;;;;;;;;;;4997728;28;20509;-81
2022/07/03 07:16:54;;;;;;;7.25;2.20;;;;;;;;;;4994135;28;20054;-79
2022/07/03 07:19:20;;;;;;;6.65;2.40;;;;;;;;;;5003474;28;20046;-80
2022/07/03 07:21:46;;;;;;;7.38;2.20;;;;;;;;;;5013229;28;20061;-81
2022/07/03 07:24:12;;;;;;;4.47;1.88;;;;;;;;;;5012822;28;20050;-80
2022/07/03 07:26:38;;;;;;;5.15;2.28;;;;;;;;;;5004000;28;20047;-80
2022/07/03 07:29:04;;;;;;;7.13;2.22;;;;;;;;;;4994078;28;20046;-80
2022/07/03 07:31:30;;;;;;;6.38;2.20;;;;;;;;;;4993814;28;20112;-79
2022/07/03 07:33:56;;;;;;;8.00;2.50;;;;;;;;;;4995184;28;20090;-80
2022/07/03 07:36:23;;;;;;;4.75;1.98;;;;;;;;;;4995840;28;20108;-80
2022/07/03 07:38:49;;;;;;;9.63;3.15;;;;;;;;;;4994489;28;20046;-80
2022/07/03 07:41:15;;;;;;;5.00;2.45;;;;;;;;;;5011334;28;20081;-80
2022/07/03 07:43:41;;;;;;;7.57;2.35;;;;;;;;;;5011615;28;20129;-80
2022/07/03 07:46:07;;;;;;;7.38;2.20;;;;;;;;;;5004801;28;20053;-80
2022/07/03 07:48:36;;;;;;;4.45;2.28;;;;;;;;;;5013985;28;20100;-79
2022/07/03 07:51:02;;;;;;;8.00;2.88;;;;;;;;;;5005372;28;20042;-80
2022/07/03 07:53:28;;;;;;;6.43;2.35;;;;;;;;;;5013864;28;20056;-80
2022/07/03 07:55:54;;;;;;;4.72;1.90;;;;;;;;;;5013780;28;20046;-80
2022/07/03 07:58:22;;;;;;;5.30;2.10;;;;;;;;;;5011870;28;20054;-80
2022/07/03 08:06:18;;;;;;;6.50;2.67;;;;;;;;;;4997482;28;20054;-80
2022/07/03 08:08:44;;;;;;;4.15;2.10;;;;;;;;;;4992878;28;20054;-80
2022/07/03 08:11:10;;;;;;;7.00;2.30;;;;;;;;;;4998238;28;20121;-80
2022/07/03 08:13:36;;;;;;;8.18;2.72;;;;;;;;;;5012756;28;20133;-80
2022/07/03 08:16:02;;;;;;;7.47;2.58;;;;;;;;;;5007605;28;20132;-80
2022/07/03 08:18:28;;;;;;;5.28;1.92;;;;;;;;;;4993072;28;20096;-80
2022/07/03 08:20:54;;;;;;;6.68;2.17;;;;;;;;;;5000308;28;20521;-79
2022/07/03 08:23:20;;;;;;;7.13;2.20;;;;;;;;;;5007648;28;20053;-80
2022/07/03 08:25:46;;;;;;;6.38;1.98;;;;;;;;;;5010083;28;20049;-80
2022/07/03 08:28:12;;;;;;;6.75;2.25;;;;;;;;;;5013727;28;20049;-80
2022/07/03 08:30:38;;;;;;;7.20;2.67;;;;;;;;;;5012986;28;20049;-79
2022/07/03 08:33:04;;;;;;;4.90;2.17;;;;;;;;;;5012282;28;20046;-80
2022/07/03 08:35:30;;;;;;;7.75;2.45;;;;;;;;;;5012994;28;20045;-80
2022/07/03 08:37:56;;;;;;;6.38;2.33;;;;;;;;;;5013281;28;20046;-80
2022/07/03 08:40:23;;;;;;;7.75;2.63;;;;;;;;;;5011044;28;20072;-81
2022/07/03 08:42:50;;;;;;;5.80;2.20;;;;;;;;;;5011856;28;20553;-80
2022/07/03 08:45:19;;;;;;;6.43;2.17;;;;;;;;;;5006819;28;20401;-80
2022/07/03 08:47:46;;;;;;;7.22;2.30;;;;;;;;;;5010959;28;20042;-80
2022/07/03 08:50:13;;;;;;;5.97;2.50;;;;;;;;;;5005971;28;20039;-80
2022/07/03 08:52:40;;;;;;;7.38;2.15;;;;;;;;;;4993034;28;20112;-80
2022/07/03 08:55:06;;;;;;;4.70;1.88;;;;;;;;;;5010928;28;20502;-80
2022/07/03 08:57:35;;;;;;;4.63;1.92;;;;;;;;;;5011423;28;20565;-79
2022/07/03 09:00:03;;;;;;;5.85;2.17;;;;;;;;;;5011814;28;20056;-80
2022/07/03 09:02:29;;;;;;;3.78;2.03;;;;;;;;;;5011598;28;20046;-80
2022/07/03 09:04:57;;;;;;;4.78;2.10;;;;;;;;;;5011818;28;20050;-81
2022/07/03 09:07:24;;;;;;;4.88;2.30;;;;;;;;;;5012998;28;20128;-80
2022/07/03 09:09:51;;;;;;;3.95;1.95;;;;;;;;;;4998709;28;20050;-81
2022/07/03 09:12:17;;;;;;;2.17;1.63;;;;;;;;;;4998651;28;20077;-80
2022/07/03 09:14:43;;;;;;;2.53;1.70;;;;;;;;;;5000838;28;20045;-80
2022/07/03 09:17:10;;;;;;;4.35;1.90;;;;;;;;;;5010491;28;20049;-80
2022/07/03 09:19:55;;;;;;;2.70;1.95;;;;;;;;;;5011061;28;20046;-80
2022/07/03 09:22:24;;;;;;;3.00;1.55;;;;;;;;;;5003345;28;20034;-80
2022/07/03 09:24:51;;;;;;;4.00;1.80;;;;;;;;;;4992701;28;20043;-81
2022/07/03 09:27:18;;;;;;;2.10;1.70;;;;;;;;;;5008147;28;20145;-80
2022/07/03 09:30:00;;;;;;;1.63;1.52;;;;;;;;;;4993560;28;20109;-80
2022/07/03 09:32:31;;;;;;;8.50;6.17;;;;;;;;;;5001423;28;20046;-80
2022/07/03 09:35:13;;;;;;;4.63;1.60;;;;;;;;;;4991256;28;20054;-80
2022/07/03 09:37:40;;;;;;;3.08;1.80;;;;;;;;;;4993991;28;20054;-80
2022/07/03 09:40:06;;;;;;;2.45;1.55;;;;;;;;;;5007268;28;20485;-80
2022/07/03 09:42:32;;;;;;;4.68;1.60;;;;;;;;;;5011821;28;20052;-79
2022/07/03 09:44:58;;;;;;;2.53;1.48;;;;;;;;;;5005166;28;20050;-80
2022/07/03 09:47:25;;;;;;;4.50;1.65;;;;;;;;;;5006643;28;20053;-81
2022/07/03 09:50:04;;;;;;;3.28;1.63;;;;;;;;;;5012127;28;20129;-81
2022/07/03 09:52:40;;;;;;;4.63;1.70;;;;;;;;;;5012431;28;20133;-80
2022/07/03 09:55:06;;;;;;;2.80;1.60;;;;;;;;;;5011793;28;20057;-80
2022/07/03 09:57:32;;;;;;;2.45;1.52;;;;;;;;;;5009496;28;20394;-80
2022/07/03 10:00:15;;;;;;;3.50;1.80;;;;;;;;;;5008101;28;20129;-80
2022/07/03 10:02:54;;;;;;;2.95;1.65;;;;;;;;;;4995455;28;20125;-80
2022/07/03 10:05:21;;;;;;;4.38;2.20;;;;;;;;;;5011836;28;20129;-80
2022/07/03 10:07:51;;;;;;;2.30;1.38;;;;;;;;;;5010019;28;20166;-80
2022/07/03 10:10:18;;;;;;;3.58;1.70;;;;;;;;;;5011276;28;20068;-80
2022/07/03 10:12:44;;;;;;;1.98;1.40;;;;;;;;;;4993011;28;20100;-80
2022/07/03 10:15:11;;;;;;;2.40;1.50;;;;;;;;;;4992440;28;20482;-80
2022/07/03 10:17:37;;;;;;;1.55;1.40;;;;;;;;;;4995475;28;20128;-80
2022/07/03 10:20:03;;;;;;;2.78;1.40;;;;;;;;;;5009347;28;20069;-80
2022/07/03 10:22:30;;;;;;;2.30;1.38;;;;;;;;;;5011923;28;20045;-80
2022/07/03 10:24:57;;;;;;;2.47;1.42;;;;;;;;;;5004311;28;20393;-80
2022/07/03 10:27:23;;;;;;;1.77;1.50;;;;;;;;;;4991344;28;20081;-81
2022/07/03 10:29:50;;;;;;;2.60;1.60;;;;;;;;;;4996700;28;20477;-80
2022/07/03 10:32:16;;;;;;;4.05;1.88;;;;;;;;;;5006547;28;20046;-80
2022/07/03 10:34:45;;;;;;;2.40;1.48;;;;;;;;;;5014009;28;20101;-80
2022/07/03 10:37:13;;;;;;;2.60;2.38;;;;;;;;;;5015878;28;20056;-80
2022/07/03 10:39:52;;;;;;;3.00;1.40;;;;;;;;;;5013631;28;20469;-80
2022/07/03 10:45:30;;;;;;;2.08;1.40;;;;;;;;;;4993748;28;20107;-80
2022/07/03 10:47:56;;;;;;;2.22;1.42;;;;;;;;;;4999144;28;20046;-80
2022/07/03 10:50:23;;;;;;;2.08;1.60;;;;;;;;;;5010404;28;20050;-80
2022/07/03 10:52:49;;;;;;;2.83;1.55;;;;;;;;;;5007143;28;20049;-80
2022/07/03 10:55:15;;;;;;;1.88;1.50;;;;;;;;;;4995009;28;20050;-80
2022/07/03 10:57:43;;;;;;;2.22;1.50;;;;;;;;;;4995236;28;20100;-81
2022/07/03 11:00:16;;;;;;;1.50;1.40;;;;;;;;;;5000007;28;20129;-80
2022/07/03 11:02:43;;;;;;;3.15;1.45;;;;;;;;;;5013774;28;20045;-81
2022/07/03 11:05:09;;;;;;;2.72;1.30;;;;;;;;;;5015272;28;20132;-80
2022/07/03 11:07:39;;;;;;;1.48;1.30;;;;;;;;;;5009420;28;20136;-80
2022/07/03 11:10:14;;;;;;;1.92;1.20;;;;;;;;;;5002043;28;20049;-80
2022/07/03 11:12:59;;;;;;;3.00;1.30;;;;;;;;;;5008343;28;20042;-80
2022/07/03 11:15:31;;;;;;;2.35;1.40;;;;;;;;;;5006237;28;20088;-81
2022/07/03 11:18:12;;;;;;;2.33;1.50;;;;;;;;;;5002357;28;20039;-80
2022/07/03 11:20:55;;;;;;;3.03;1.50;;;;;;;;;;5012485;28;20058;-80
2022/07/03 11:23:30;;;;;;;2.22;1.70;;;;;;;;;;5014098;28;20045;-80
2022/07/03 11:25:57;;;;;;;2.75;1.40;;;;;;;;;;5010555;28;20042;-80
2022/07/03 11:28:32;;;;;;;2.47;1.40;;;;;;;;;;4996026;28;20050;-80
2022/07/03 11:31:13;;;;;;;1.40;1.30;;;;;;;;;;4994289;28;20046;-80
2022/07/03 11:33:42;;;;;;;2.92;1.40;;;;;;;;;;5004229;28;20050;-81
2022/07/03 11:36:12;;;;;;;2.70;1.50;;;;;;;;;;5012178;28;20056;-80
2022/07/03 11:38:38;;;;;;;1.67;1.45;;;;;;;;;;5013142;28;20485;-80
2022/07/03 11:41:07;;;;;;;2.25;1.50;;;;;;;;;;5008789;28;20049;-80
2022/07/03 11:43:34;;;;;;;2.42;1.80;;;;;;;;;;5013866;28;20049;-80
2022/07/03 11:46:00;;;;;;;2.78;1.58;;;;;;;;;;5007382;28;20128;-80
2022/07/03 11:48:27;;;;;;;2.72;1.55;;;;;;;;;;5026034;28;20050;-81
2022/07/03 11:50:59;;;;;;;1.70;1.50;;;;;;;;;;5011990;28;20046;-81
2022/07/03 11:53:29;;;;;;;1.42;1.30;;;;;;;;;;5013012;28;20046;-80
2022/07/03 11:55:58;;;;;;;1.88;1.73;;;;;;;;;;5012062;28;20070;-81
2022/07/03 11:58:26;;;;;;;3.55;1.80;;;;;;;;;;5012051;28;20103;-81
2022/07/03 12:00:53;;;;;;;8.88;6.60;;;;;;;;;;5013250;28;20705;-81
2022/07/03 12:03:23;;;;;;;2.10;1.50;;;;;;;;;;5014242;28;20049;-80
2022/07/03 12:05:54;;;;;;;1.88;1.77;;;;;;;;;;5012943;28;20064;-80
2022/07/03 12:08:24;;;;;;;2.00;1.60;;;;;;;;;;5012876;28;20057;-81
2022/07/03 12:10:56;;;;;;;2.70;1.52;;;;;;;;;;5011374;28;20379;-81
2022/07/03 12:13:24;;;;;;;1.58;1.30;;;;;;;;;;4997945;28;20157;-81
2022/07/03 12:15:50;;;;;;;2.33;1.60;;;;;;;;;;4999457;28;20489;-80
2022/07/03 12:18:16;;;;;;;3.67;1.50;;;;;;;;;;5012046;28;20045;-80
2022/07/03 12:20:43;;;;;;;2.03;1.30;;;;;;;;;;5007983;28;20072;-80
2022/07/03 12:23:09;;;;;;;1.42;1.30;;;;;;;;;;4995258;28;20125;-80
2022/07/03 12:25:39;;;;;;;2.20;1.70;;;;;;;;;;4999371;28;20489;-81
2022/07/03 12:28:06;;;;;;;3.50;1.40;;;;;;;;;;5011853;28;20053;-80
2022/07/03 12:30:32;;;;;;;3.15;1.55;;;;;;;;;;5013111;28;20385;-80
2022/07/03 12:32:58;;;;;;;3.30;1.50;;;;;;;;;;5012718;28;20088;-81
2022/07/03 12:35:25;;;;;;;1.60;1.35;;;;;;;;;;5012238;28;20053;-81
2022/07/03 12:37:51;;;;;;;1.42;1.33;;;;;;;;;;5009817;28;20070;-81
2022/07/03 12:40:18;;;;;;;2.17;1.63;;;;;;;;;;5001560;28;20045;-81
2022/07/03 12:42:47;;;;;;;2.10;1.70;;;;;;;;;;5012048;28;20540;-80
2022/07/03 12:45:14;;;;;;;2.13;1.27;;;;;;;;;;5006390;28;20046;-80
2022/07/03 12:47:40;;;;;;;1.50;1.40;;;;;;;;;;4991533;28;20133;-80
2022/07/03 12:50:07;;;;;;;2.25;1.42;;;;;;;;;;4992350;28;20475;-81
2022/07/03 12:52:34;;;;;;;1.88;1.30;;;;;;;;;;5005049;28;20486;-79
2022/07/03 12:55:01;;;;;;;2.10;1.40;;;;;;;;;;5006663;28;20525;-80
2022/07/03 13:00:16;;;;;;;2.35;1.48;;;;;;;;;;5012315;28;20046;-80
2022/07/03 13:02:43;;;;;;;1.38;1.27;;;;;;;;;;5012205;28;20046;-80
2022/07/03 13:05:29;;;;;;;1.55;1.45;;;;;;;;;;5012724;28;20382;-81
2022/07/03 13:07:55;;;;;;;1.30;1.20;;;;;;;;;;5010727;28;20124;-80
2022/07/03 13:10:23;;;;;;;1.67;1.42;;;;;;;;;;5011427;28;20104;-82
2022/07/03 13:12:53;;;;;;;1.70;1.30;;;;;;;;;;5010602;28;20133;-81
2022/07/03 13:15:20;;;;;;;1.50;1.40;;;;;;;;;;4994716;28;20047;-81
2022/07/03 13:17:52;;;;;;;2.10;1.48;;;;;;;;;;5004352;28;20054;-80
2022/07/03 13:20:18;;;;;;;1.50;1.40;;;;;;;;;;4996290;28;20069;-80
2022/07/03 13:22:44;;;;;;;2.05;1.48;;;;;;;;;;5008713;28;20053;-80
2022/07/03 13:25:10;;;;;;;2.08;1.50;;;;;;;;;;5007633;28;20038;-80
2022/07/03 13:27:36;;;;;;;1.95;1.40;;;;;;;;;;5007933;28;20115;-80
2022/07/03 13:30:02;;;;;;;2.97;1.70;;;;;;;;;;5009470;28;20038;-80
2022/07/03 13:32:28;;;;;;;1.58;1.30;;;;;;;;;;5008489;28;20042;-79
2022/07/03 13:34:55;;;;;;;3.05;1.33;;;;;;;;;;4999356;28;20286;-79
2022/07/03 13:37:21;;;;;;;1.75;1.25;;;;;;;;;;5029161;28;20187;-79
2022/07/03 13:39:47;;;;;;;2.83;1.17;;;;;;;;;;5011320;28;20593;-79
2022/07/03 13:42:13;;;;;;;2.08;1.40;;;;;;;;;;5011814;28;20172;-79
2022/07/03 13:44:39;;;;;;;3.10;1.50;;;;;;;;;;4995454;28;20213;-79
2022/07/03 13:47:05;;;;;;;2.65;1.45;;;;;;;;;;4992942;28;20275;-79
2022/07/03 13:49:32;;;;;;;3.78;1.48;;;;;;;;;;5006189;28;20168;-78
2022/07/03 13:51:58;;;;;;;2.60;1.40;;;;;;;;;;5011649;28;20045;-79
2022/07/03 13:54:24;;;;;;;1.50;1.40;;;;;;;;;;5008679;28;20053;-78
2022/07/03 13:56:50;;;;;;;1.65;1.23;;;;;;;;;;5009163;28;20172;-79
2022/07/03 13:59:16;;;;;;;3.00;1.55;;;;;;;;;;5010544;28;20077;-79
2022/07/03 14:01:43;;;;;;;1.65;1.40;;;;;;;;;;5011663;28;20490;-79
2022/07/03 14:04:09;;;;;;;2.42;1.50;;;;;;;;;;5011592;28;20050;-79
2022/07/03 14:06:35;;;;;;;3.17;1.50;;;;;;;;;;5010245;28;20129;-79
2022/07/03 14:09:01;;;;;;;2.72;1.98;;;;;;;;;;5013427;28;20104;-79
2022/07/03 14:11:27;;;;;;;1.35;1.25;;;;;;;;;;5013541;28;20050;-79
2022/07/03 14:13:53;;;;;;;1.38;1.30;;;;;;;;;;4997101;28;20387;-79
2022/07/03 14:16:19;;;;;;;3.38;1.63;;;;;;;;;;4995242;28;20145;-80
2022/07/03 14:18:45;;;;;;;1.40;1.30;;;;;;;;;;5003403;28;20104;-79
2022/07/03 14:21:11;;;;;;;1.65;1.35;;;;;;;;;;5015679;28;20054;-79
2022/07/03 14:23:37;;;;;;;2.40;1.63;;;;;;;;;;5014006;28;20401;-80
2022/07/03 14:26:03;;;;;;;2.85;1.73;;;;;;;;;;5009798;28;20054;-78
2022/07/03 14:33:49;;;;;;;2.00;1.63;;;;;;;;;;5015226;28;20134;-79
2022/07/03 14:36:15;;;;;;;1.73;1.58;;;;;;;;;;5014396;28;20050;-79
2022/07/03 14:38:41;;;;;;;1.65;1.50;;;;;;;;;;5014495;28;20044;-80
2022/07/03 14:41:07;;;;;;;1.90;1.50;;;;;;;;;;5015444;28;20034;-80
2022/07/03 14:43:34;;;;;;;2.83;1.45;;;;;;;;;;5012721;28;20052;-79
2022/07/03 14:46:00;;;;;;;1.80;1.60;;;;;;;;;;5011726;28;20042;-79
2022/07/03 14:48:26;;;;;;;2.83;1.58;;;;;;;;;;4997130;28;20046;-79
2022/07/03 14:50:52;;;;;;;4.13;1.92;;;;;;;;;;4999273;28;21171;-80
2022/07/03 14:53:19;;;;;;;2.08;1.60;;;;;;;;;;5006914;28;20049;-79
2022/07/03 14:55:45;;;;;;;2.42;1.90;;;;;;;;;;5010986;28;20082;-80
2022/07/03 14:58:16;;;;;;;1.65;1.50;;;;;;;;;;5011800;28;20042;-81
2022/07/03 15:00:43;;;;;;;2.35;1.80;;;;;;;;;;5011517;28;20054;-79
2022/07/03 15:03:16;;;;;;;1.52;1.42;;;;;;;;;;5009551;28;20066;-79
2022/07/03 15:05:42;;;;;;;4.32;1.58;;;;;;;;;;5029557;28;20045;-80
2022/07/03 15:08:28;;;;;;;2.05;1.40;;;;;;;;;;5011040;28;20046;-79